sensor_id;sensor_type;location;lat;lon;timestamp;temperature;humidity
34989;DHT22;21192;40.182;44.516;2024-02-26T00:00:07;3.30;62.10
34989;DHT22;21192;40.182;44.516;2024-02-26T00:02:36;3.50;61.80
34989;DHT22;21192;40.182;44.516;2024-02-26T00:05:06;3.50;61.40
34989;DHT22;21192;40.182;44.516;2024-02-26T00:07:32;3.50;61.40
34989;DHT22;21192;40.182;44.516;2024-02-26T00:09:58;3.50;61.30
34989;DHT22;21192;40.182;44.516;2024-02-26T00:12:24;3.60;61.10
34989;DHT22;21192;40.182;44.516;2024-02-26T00:14:50;3.60;61.00
34989;DHT22;21192;40.182;44.516;2024-02-26T00:17:18;3.50;61.10
34989;DHT22;21192;40.182;44.516;2024-02-26T00:19:44;3.50;61.40
34989;DHT22;21192;40.182;44.516;2024-02-26T00:22:09;3.60;61.40
34989;DHT22;21192;40.182;44.516;2024-02-26T00:24:35;3.60;61.40
34989;DHT22;21192;40.182;44.516;2024-02-26T00:27:01;3.70;62.10
34989;DHT22;21192;40.182;44.516;2024-02-26T00:29:27;3.80;61.20
34989;DHT22;21192;40.182;44.516;2024-02-26T00:31:53;3.90;60.80
34989;DHT22;21192;40.182;44.516;2024-02-26T00:34:19;4.00;60.60
34989;DHT22;21192;40.182;44.516;2024-02-26T00:36:45;4.10;60.40
34989;DHT22;21192;40.182;44.516;2024-02-26T00:39:11;4.20;60.10
34989;DHT22;21192;40.182;44.516;2024-02-26T00:41:41;4.30;59.80
34989;DHT22;21192;40.182;44.516;2024-02-26T00:44:07;4.30;59.60
34989;DHT22;21192;40.182;44.516;2024-02-26T00:46:33;4.20;59.60
34989;DHT22;21192;40.182;44.516;2024-02-26T00:48:58;4.10;59.80
34989;DHT22;21192;40.182;44.516;2024-02-26T00:51:25;4.20;59.90
34989;DHT22;21192;40.182;44.516;2024-02-26T00:53:51;4.30;59.90
34989;DHT22;21192;40.182;44.516;2024-02-26T00:56:17;4.30;59.90
34989;DHT22;21192;40.182;44.516;2024-02-26T00:58:43;4.30;59.70
34989;DHT22;21192;40.182;44.516;2024-02-26T01:01:09;4.30;59.70
34989;DHT22;21192;40.182;44.516;2024-02-26T01:03:35;4.10;59.70
34989;DHT22;21192;40.182;44.516;2024-02-26T01:06:01;4.00;59.90
34989;DHT22;21192;40.182;44.516;2024-02-26T01:08:26;3.90;60.20
34989;DHT22;21192;40.182;44.516;2024-02-26T01:10:52;3.80;60.40
34989;DHT22;21192;40.182;44.516;2024-02-26T01:13:18;3.70;60.50
34989;DHT22;21192;40.182;44.516;2024-02-26T01:15:44;3.60;60.70
34989;DHT22;21192;40.182;44.516;2024-02-26T01:18:10;3.60;61.10
34989;DHT22;21192;40.182;44.516;2024-02-26T01:20:36;3.80;60.90
34989;DHT22;21192;40.182;44.516;2024-02-26T01:23:02;3.90;60.70
34989;DHT22;21192;40.182;44.516;2024-02-26T01:25:28;4.00;60.60
34989;DHT22;21192;40.182;44.516;2024-02-26T01:27:54;4.10;60.50
34989;DHT22;21192;40.182;44.516;2024-02-26T01:30:19;4.00;60.40
34989;DHT22;21192;40.182;44.516;2024-02-26T01:32:45;4.10;60.40
34989;DHT22;21192;40.182;44.516;2024-02-26T01:35:11;4.10;60.40
34989;DHT22;21192;40.182;44.516;2024-02-26T01:37:37;4.10;60.40
34989;DHT22;21192;40.182;44.516;2024-02-26T01:40:05;4.10;60.40
34989;DHT22;21192;40.182;44.516;2024-02-26T01:42:32;4.10;60.50
34989;DHT22;21192;40.182;44.516;2024-02-26T01:44:59;4.10;60.50
34989;DHT22;21192;40.182;44.516;2024-02-26T01:47:26;4.10;60.40
34989;DHT22;21192;40.182;44.516;2024-02-26T01:49:53;4.10;60.40
34989;DHT22;21192;40.182;44.516;2024-02-26T01:52:20;4.00;60.40
34989;DHT22;21192;40.182;44.516;2024-02-26T01:54:47;4.00;60.70
34989;DHT22;21192;40.182;44.516;2024-02-26T01:57:14;3.90;60.80
34989;DHT22;21192;40.182;44.516;2024-02-26T01:59:40;3.80;61.10
34989;DHT22;21192;40.182;44.516;2024-02-26T02:02:08;3.70;61.30
34989;DHT22;21192;40.182;44.516;2024-02-26T02:04:36;3.70;61.70
34989;DHT22;21192;40.182;44.516;2024-02-26T02:07:03;3.70;61.80
34989;DHT22;21192;40.182;44.516;2024-02-26T02:09:29;3.60;61.80
34989;DHT22;21192;40.182;44.516;2024-02-26T02:11:55;3.70;61.90
34989;DHT22;21192;40.182;44.516;2024-02-26T02:14:22;3.80;61.80
34989;DHT22;21192;40.182;44.516;2024-02-26T02:16:48;3.90;61.80
34989;DHT22;21192;40.182;44.516;2024-02-26T02:19:14;3.90;61.70
34989;DHT22;21192;40.182;44.516;2024-02-26T02:21:40;4.00;61.70
34989;DHT22;21192;40.182;44.516;2024-02-26T02:24:05;3.90;61.60
34989;DHT22;21192;40.182;44.516;2024-02-26T02:26:31;3.90;61.70
34989;DHT22;21192;40.182;44.516;2024-02-26T02:28:58;3.80;61.80
34989;DHT22;21192;40.182;44.516;2024-02-26T02:31:24;3.80;62.10
34989;DHT22;21192;40.182;44.516;2024-02-26T02:33:50;3.70;62.20
34989;DHT22;21192;40.182;44.516;2024-02-26T02:36:16;3.80;62.20
34989;DHT22;21192;40.182;44.516;2024-02-26T02:38:51;3.90;62.10
34989;DHT22;21192;40.182;44.516;2024-02-26T02:41:18;3.90;61.90
34989;DHT22;21192;40.182;44.516;2024-02-26T02:43:44;3.90;61.90
34989;DHT22;21192;40.182;44.516;2024-02-26T02:46:10;4.00;61.90
34989;DHT22;21192;40.182;44.516;2024-02-26T02:48:38;4.00;61.90
34989;DHT22;21192;40.182;44.516;2024-02-26T02:51:05;4.00;61.70
34989;DHT22;21192;40.182;44.516;2024-02-26T02:53:31;3.90;61.60
34989;DHT22;21192;40.182;44.516;2024-02-26T02:55:57;3.90;61.60
34989;DHT22;21192;40.182;44.516;2024-02-26T02:58:22;3.80;61.60
34989;DHT22;21192;40.182;44.516;2024-02-26T03:00:48;3.70;61.90
34989;DHT22;21192;40.182;44.516;2024-02-26T03:03:14;3.90;62.40
34989;DHT22;21192;40.182;44.516;2024-02-26T03:05:40;4.00;62.70
34989;DHT22;21192;40.182;44.516;2024-02-26T03:08:06;4.10;62.60
34989;DHT22;21192;40.182;44.516;2024-02-26T03:10:32;4.00;62.10
34989;DHT22;21192;40.182;44.516;2024-02-26T03:12:58;3.90;61.90
34989;DHT22;21192;40.182;44.516;2024-02-26T03:15:24;3.70;62.00
34989;DHT22;21192;40.182;44.516;2024-02-26T03:17:49;3.60;62.20
34989;DHT22;21192;40.182;44.516;2024-02-26T03:20:15;3.60;62.30
34989;DHT22;21192;40.182;44.516;2024-02-26T03:22:44;3.50;62.30
34989;DHT22;21192;40.182;44.516;2024-02-26T03:25:09;3.60;62.20
34989;DHT22;21192;40.182;44.516;2024-02-26T03:27:35;3.60;61.80
34989;DHT22;21192;40.182;44.516;2024-02-26T03:30:02;3.50;61.70
34989;DHT22;21192;40.182;44.516;2024-02-26T03:32:29;3.50;61.60
34989;DHT22;21192;40.182;44.516;2024-02-26T03:34:55;3.50;61.50
34989;DHT22;21192;40.182;44.516;2024-02-26T03:37:21;3.50;61.50
34989;DHT22;21192;40.182;44.516;2024-02-26T03:39:47;3.50;61.50
34989;DHT22;21192;40.182;44.516;2024-02-26T03:42:13;3.60;61.60
34989;DHT22;21192;40.182;44.516;2024-02-26T03:44:39;3.60;61.70
34989;DHT22;21192;40.182;44.516;2024-02-26T03:47:05;3.60;61.60
34989;DHT22;21192;40.182;44.516;2024-02-26T03:49:30;3.70;61.40
34989;DHT22;21192;40.182;44.516;2024-02-26T03:51:56;3.70;61.40
34989;DHT22;21192;40.182;44.516;2024-02-26T03:54:22;3.60;61.30
34989;DHT22;21192;40.182;44.516;2024-02-26T03:56:48;3.50;61.20
34989;DHT22;21192;40.182;44.516;2024-02-26T03:59:14;3.40;61.30
34989;DHT22;21192;40.182;44.516;2024-02-26T04:01:48;3.40;62.20
34989;DHT22;21192;40.182;44.516;2024-02-26T04:04:14;3.30;62.30
34989;DHT22;21192;40.182;44.516;2024-02-26T04:06:39;3.30;62.30
34989;DHT22;21192;40.182;44.516;2024-02-26T04:09:05;3.40;62.30
34989;DHT22;21192;40.182;44.516;2024-02-26T04:11:31;3.30;62.10
34989;DHT22;21192;40.182;44.516;2024-02-26T04:13:57;3.30;62.00
34989;DHT22;21192;40.182;44.516;2024-02-26T04:16:23;3.40;62.00
34989;DHT22;21192;40.182;44.516;2024-02-26T04:18:49;3.50;61.70
34989;DHT22;21192;40.182;44.516;2024-02-26T04:21:15;3.70;61.40
34989;DHT22;21192;40.182;44.516;2024-02-26T04:23:41;3.70;60.80
34989;DHT22;21192;40.182;44.516;2024-02-26T04:26:06;3.70;60.60
34989;DHT22;21192;40.182;44.516;2024-02-26T04:28:32;3.80;60.30
34989;DHT22;21192;40.182;44.516;2024-02-26T04:30:58;4.00;60.40
34989;DHT22;21192;40.182;44.516;2024-02-26T04:33:24;4.10;59.80
34989;DHT22;21192;40.182;44.516;2024-02-26T04:35:50;3.90;61.00
34989;DHT22;21192;40.182;44.516;2024-02-26T04:38:16;3.80;62.10
34989;DHT22;21192;40.182;44.516;2024-02-26T04:40:42;3.70;62.80
34989;DHT22;21192;40.182;44.516;2024-02-26T04:43:07;3.70;63.00
34989;DHT22;21192;40.182;44.516;2024-02-26T04:45:33;3.60;63.00
34989;DHT22;21192;40.182;44.516;2024-02-26T04:48:00;3.60;63.10
34989;DHT22;21192;40.182;44.516;2024-02-26T04:50:25;3.60;63.60
34989;DHT22;21192;40.182;44.516;2024-02-26T04:52:51;3.60;63.70
34989;DHT22;21192;40.182;44.516;2024-02-26T04:55:17;3.60;63.60
34989;DHT22;21192;40.182;44.516;2024-02-26T04:57:43;3.70;63.70
34989;DHT22;21192;40.182;44.516;2024-02-26T05:00:09;3.70;63.40
34989;DHT22;21192;40.182;44.516;2024-02-26T05:02:35;3.60;63.70
34989;DHT22;21192;40.182;44.516;2024-02-26T05:05:05;3.50;64.10
34989;DHT22;21192;40.182;44.516;2024-02-26T05:07:31;3.50;64.30
34989;DHT22;21192;40.182;44.516;2024-02-26T05:09:57;3.30;64.40
34989;DHT22;21192;40.182;44.516;2024-02-26T05:12:23;3.50;64.80
34989;DHT22;21192;40.182;44.516;2024-02-26T05:14:49;3.60;64.50
34989;DHT22;21192;40.182;44.516;2024-02-26T05:17:15;3.60;64.50
34989;DHT22;21192;40.182;44.516;2024-02-26T05:19:41;4.60;64.90
34989;DHT22;21192;40.182;44.516;2024-02-26T05:22:07;6.30;64.00
34989;DHT22;21192;40.182;44.516;2024-02-26T05:24:33;8.40;61.70
34989;DHT22;21192;40.182;44.516;2024-02-26T05:26:59;11.00;58.20
34989;DHT22;21192;40.182;44.516;2024-02-26T05:29:25;13.10;53.90
34989;DHT22;21192;40.182;44.516;2024-02-26T05:31:51;15.00;50.00
34989;DHT22;21192;40.182;44.516;2024-02-26T05:34:19;16.70;47.00
34989;DHT22;21192;40.182;44.516;2024-02-26T05:36:45;18.30;44.40
34989;DHT22;21192;40.182;44.516;2024-02-26T05:39:11;19.90;41.50
34989;DHT22;21192;40.182;44.516;2024-02-26T05:41:37;20.80;39.00
34989;DHT22;21192;40.182;44.516;2024-02-26T05:44:03;21.60;37.10
34989;DHT22;21192;40.182;44.516;2024-02-26T05:46:29;22.40;35.50
34989;DHT22;21192;40.182;44.516;2024-02-26T05:48:55;22.70;34.30
34989;DHT22;21192;40.182;44.516;2024-02-26T05:51:21;22.70;33.60
34989;DHT22;21192;40.182;44.516;2024-02-26T05:53:47;23.70;33.00
34989;DHT22;21192;40.182;44.516;2024-02-26T05:56:20;24.60;31.40
34989;DHT22;21192;40.182;44.516;2024-02-26T05:58:46;24.80;30.60
34989;DHT22;21192;40.182;44.516;2024-02-26T06:01:12;25.00;29.90
34989;DHT22;21192;40.182;44.516;2024-02-26T06:03:37;25.30;29.90
34989;DHT22;21192;40.182;44.516;2024-02-26T06:06:04;26.30;29.30
34989;DHT22;21192;40.182;44.516;2024-02-26T06:08:31;27.30;28.70
34989;DHT22;21192;40.182;44.516;2024-02-26T06:10:57;28.00;28.00
34989;DHT22;21192;40.182;44.516;2024-02-26T06:13:23;28.50;27.50
34989;DHT22;21192;40.182;44.516;2024-02-26T06:15:49;28.40;27.20
34989;DHT22;21192;40.182;44.516;2024-02-26T06:18:14;28.30;26.90
34989;DHT22;21192;40.182;44.516;2024-02-26T06:29:14;28.40;26.00
34989;DHT22;21192;40.182;44.516;2024-02-26T06:31:41;27.90;29.90
34989;DHT22;21192;40.182;44.516;2024-02-26T06:34:06;27.40;27.70
34989;DHT22;21192;40.182;44.516;2024-02-26T06:36:32;25.30;26.70
34989;DHT22;21192;40.182;44.516;2024-02-26T06:38:58;23.30;28.60
34989;DHT22;21192;40.182;44.516;2024-02-26T06:41:24;21.30;29.60
34989;DHT22;21192;40.182;44.516;2024-02-26T06:43:53;19.60;30.90
34989;DHT22;21192;40.182;44.516;2024-02-26T06:46:19;18.10;31.10
34989;DHT22;21192;40.182;44.516;2024-02-26T06:48:45;17.10;31.90
34989;DHT22;21192;40.182;44.516;2024-02-26T06:51:11;16.10;33.90
34989;DHT22;21192;40.182;44.516;2024-02-26T06:53:37;15.80;35.40
34989;DHT22;21192;40.182;44.516;2024-02-26T06:56:03;15.20;35.10
34989;DHT22;21192;40.182;44.516;2024-02-26T06:58:29;14.80;34.60
34989;DHT22;21192;40.182;44.516;2024-02-26T07:00:55;14.20;35.20
34989;DHT22;21192;40.182;44.516;2024-02-26T07:03:21;13.80;35.70
34989;DHT22;21192;40.182;44.516;2024-02-26T07:05:48;13.40;36.70
34989;DHT22;21192;40.182;44.516;2024-02-26T07:08:14;12.70;37.00
34989;DHT22;21192;40.182;44.516;2024-02-26T07:10:40;12.30;37.60
34989;DHT22;21192;40.182;44.516;2024-02-26T07:13:06;12.10;38.00
34989;DHT22;21192;40.182;44.516;2024-02-26T07:15:31;11.90;38.20
34989;DHT22;21192;40.182;44.516;2024-02-26T07:17:58;11.70;38.60
34989;DHT22;21192;40.182;44.516;2024-02-26T07:20:29;11.30;39.00
34989;DHT22;21192;40.182;44.516;2024-02-26T07:22:55;11.20;39.30
34989;DHT22;21192;40.182;44.516;2024-02-26T07:25:22;11.10;39.30
34989;DHT22;21192;40.182;44.516;2024-02-26T07:27:47;10.80;40.20
34989;DHT22;21192;40.182;44.516;2024-02-26T07:30:13;10.20;40.80
34989;DHT22;21192;40.182;44.516;2024-02-26T07:32:40;9.90;42.10
34989;DHT22;21192;40.182;44.516;2024-02-26T07:35:06;10.10;42.20
34989;DHT22;21192;40.182;44.516;2024-02-26T07:37:32;9.90;42.20
34989;DHT22;21192;40.182;44.516;2024-02-26T07:39:58;9.80;43.00
34989;DHT22;21192;40.182;44.516;2024-02-26T07:42:23;9.80;43.20
34989;DHT22;21192;40.182;44.516;2024-02-26T07:44:51;9.80;43.20
34989;DHT22;21192;40.182;44.516;2024-02-26T07:47:16;9.60;43.20
34989;DHT22;21192;40.182;44.516;2024-02-26T07:49:42;9.40;43.50
34989;DHT22;21192;40.182;44.516;2024-02-26T07:52:08;9.50;43.60
34989;DHT22;21192;40.182;44.516;2024-02-26T07:54:34;9.50;43.50
34989;DHT22;21192;40.182;44.516;2024-02-26T07:57:00;9.50;43.30
34989;DHT22;21192;40.182;44.516;2024-02-26T07:59:26;9.50;43.20
34989;DHT22;21192;40.182;44.516;2024-02-26T08:01:52;9.70;43.00
34989;DHT22;21192;40.182;44.516;2024-02-26T08:04:18;9.80;42.80
34989;DHT22;21192;40.182;44.516;2024-02-26T08:06:44;9.60;42.90
34989;DHT22;21192;40.182;44.516;2024-02-26T08:09:10;9.40;43.10
34989;DHT22;21192;40.182;44.516;2024-02-26T08:11:38;9.00;44.10
34989;DHT22;21192;40.182;44.516;2024-02-26T08:14:04;8.90;45.00
34989;DHT22;21192;40.182;44.516;2024-02-26T08:16:30;9.00;44.80
34989;DHT22;21192;40.182;44.516;2024-02-26T08:18:56;9.00;44.40
34989;DHT22;21192;40.182;44.516;2024-02-26T08:21:22;9.00;44.40
34989;DHT22;21192;40.182;44.516;2024-02-26T08:23:47;9.10;44.30
34989;DHT22;21192;40.182;44.516;2024-02-26T08:26:13;9.00;44.60
34989;DHT22;21192;40.182;44.516;2024-02-26T08:28:39;8.90;44.90
34989;DHT22;21192;40.182;44.516;2024-02-26T08:31:06;9.10;44.80
34989;DHT22;21192;40.182;44.516;2024-02-26T08:33:32;9.00;44.80
34989;DHT22;21192;40.182;44.516;2024-02-26T08:36:04;8.80;45.20
34989;DHT22;21192;40.182;44.516;2024-02-26T08:38:30;8.70;45.70
34989;DHT22;21192;40.182;44.516;2024-02-26T08:40:56;8.40;46.10
34989;DHT22;21192;40.182;44.516;2024-02-26T08:43:22;8.30;46.00
34989;DHT22;21192;40.182;44.516;2024-02-26T08:45:48;8.40;46.00
34989;DHT22;21192;40.182;44.516;2024-02-26T08:48:14;8.30;46.10
34989;DHT22;21192;40.182;44.516;2024-02-26T08:50:41;8.10;46.20
34989;DHT22;21192;40.182;44.516;2024-02-26T08:53:07;8.00;46.30
34989;DHT22;21192;40.182;44.516;2024-02-26T08:55:33;8.10;46.50
34989;DHT22;21192;40.182;44.516;2024-02-26T08:57:59;8.10;46.60
34989;DHT22;21192;40.182;44.516;2024-02-26T09:00:25;8.00;46.80
34989;DHT22;21192;40.182;44.516;2024-02-26T09:02:50;8.00;47.10
34989;DHT22;21192;40.182;44.516;2024-02-26T09:05:16;7.90;47.10
34989;DHT22;21192;40.182;44.516;2024-02-26T09:07:42;7.50;47.20
34989;DHT22;21192;40.182;44.516;2024-02-26T09:10:09;7.50;47.50
34989;DHT22;21192;40.182;44.516;2024-02-26T09:12:36;7.60;47.50
34989;DHT22;21192;40.182;44.516;2024-02-26T09:15:03;7.40;47.30
34989;DHT22;21192;40.182;44.516;2024-02-26T09:17:29;7.50;47.50
34989;DHT22;21192;40.182;44.516;2024-02-26T09:19:55;7.40;47.60
34989;DHT22;21192;40.182;44.516;2024-02-26T09:22:21;7.10;48.10
34989;DHT22;21192;40.182;44.516;2024-02-26T09:24:47;7.10;48.40
34989;DHT22;21192;40.182;44.516;2024-02-26T09:27:12;7.20;48.50
34989;DHT22;21192;40.182;44.516;2024-02-26T09:29:38;7.30;48.50
34989;DHT22;21192;40.182;44.516;2024-02-26T09:32:04;7.30;48.60
34989;DHT22;21192;40.182;44.516;2024-02-26T09:34:30;7.40;48.10
34989;DHT22;21192;40.182;44.516;2024-02-26T09:36:56;7.60;47.70
34989;DHT22;21192;40.182;44.516;2024-02-26T09:39:22;7.60;47.70
34989;DHT22;21192;40.182;44.516;2024-02-26T09:41:48;7.30;48.00
34989;DHT22;21192;40.182;44.516;2024-02-26T09:44:18;7.40;48.30
34989;DHT22;21192;40.182;44.516;2024-02-26T09:46:50;7.40;48.20
34989;DHT22;21192;40.182;44.516;2024-02-26T09:49:20;7.40;48.10
34989;DHT22;21192;40.182;44.516;2024-02-26T09:51:49;7.40;48.20
34989;DHT22;21192;40.182;44.516;2024-02-26T09:54:17;7.30;48.60
34989;DHT22;21192;40.182;44.516;2024-02-26T09:56:43;7.10;48.70
34989;DHT22;21192;40.182;44.516;2024-02-26T09:59:15;7.30;53.10
34989;DHT22;21192;40.182;44.516;2024-02-26T10:01:43;7.70;51.30
34989;DHT22;21192;40.182;44.516;2024-02-26T10:04:10;7.70;49.40
34989;DHT22;21192;40.182;44.516;2024-02-26T10:06:37;7.60;48.80
34989;DHT22;21192;40.182;44.516;2024-02-26T10:09:03;7.60;48.60
34989;DHT22;21192;40.182;44.516;2024-02-26T10:11:32;7.70;48.50
34989;DHT22;21192;40.182;44.516;2024-02-26T10:13:58;7.70;48.50
34989;DHT22;21192;40.182;44.516;2024-02-26T10:16:28;7.60;48.40
34989;DHT22;21192;40.182;44.516;2024-02-26T10:18:54;7.50;48.50
34989;DHT22;21192;40.182;44.516;2024-02-26T10:21:21;7.60;48.60
34989;DHT22;21192;40.182;44.516;2024-02-26T10:23:47;7.50;48.30
34989;DHT22;21192;40.182;44.516;2024-02-26T10:26:14;7.50;48.90
34989;DHT22;21192;40.182;44.516;2024-02-26T10:28:45;7.70;48.70
34989;DHT22;21192;40.182;44.516;2024-02-26T10:31:11;7.70;48.30
34989;DHT22;21192;40.182;44.516;2024-02-26T10:33:39;7.70;48.10
34989;DHT22;21192;40.182;44.516;2024-02-26T10:36:06;7.60;48.20
34989;DHT22;21192;40.182;44.516;2024-02-26T10:38:36;7.70;48.30
34989;DHT22;21192;40.182;44.516;2024-02-26T10:41:13;7.80;48.00
34989;DHT22;21192;40.182;44.516;2024-02-26T10:43:41;7.80;47.90
34989;DHT22;21192;40.182;44.516;2024-02-26T10:46:07;7.80;48.10
34989;DHT22;21192;40.182;44.516;2024-02-26T10:48:33;7.70;48.10
34989;DHT22;21192;40.182;44.516;2024-02-26T10:50:59;7.70;48.10
34989;DHT22;21192;40.182;44.516;2024-02-26T10:53:29;7.60;48.10
34989;DHT22;21192;40.182;44.516;2024-02-26T10:55:59;7.50;48.20
34989;DHT22;21192;40.182;44.516;2024-02-26T10:58:27;7.40;48.20
34989;DHT22;21192;40.182;44.516;2024-02-26T11:00:56;7.40;48.10
34989;DHT22;21192;40.182;44.516;2024-02-26T11:03:23;7.40;48.10
34989;DHT22;21192;40.182;44.516;2024-02-26T11:05:50;7.50;48.00
34989;DHT22;21192;40.182;44.516;2024-02-26T11:08:19;7.60;48.00
34989;DHT22;21192;40.182;44.516;2024-02-26T11:10:53;7.30;49.70
34989;DHT22;21192;40.182;44.516;2024-02-26T11:13:21;7.20;49.10
34989;DHT22;21192;40.182;44.516;2024-02-26T11:15:47;7.10;48.90
34989;DHT22;21192;40.182;44.516;2024-02-26T11:18:17;7.30;49.40
34989;DHT22;21192;40.182;44.516;2024-02-26T11:20:44;7.50;49.90
34989;DHT22;21192;40.182;44.516;2024-02-26T11:23:11;7.60;49.00
34989;DHT22;21192;40.182;44.516;2024-02-26T11:25:37;7.40;48.30
34989;DHT22;21192;40.182;44.516;2024-02-26T11:28:09;7.30;48.30
34989;DHT22;21192;40.182;44.516;2024-02-26T11:30:37;7.40;48.70
34989;DHT22;21192;40.182;44.516;2024-02-26T11:33:07;7.40;48.30
34989;DHT22;21192;40.182;44.516;2024-02-26T11:35:36;7.40;49.00
34989;DHT22;21192;40.182;44.516;2024-02-26T11:38:02;7.30;48.50
34989;DHT22;21192;40.182;44.516;2024-02-26T11:40:30;7.50;48.30
34989;DHT22;21192;40.182;44.516;2024-02-26T11:42:57;7.70;48.10
34989;DHT22;21192;40.182;44.516;2024-02-26T11:48:21;8.00;47.60
34989;DHT22;21192;40.182;44.516;2024-02-26T11:50:55;8.10;47.40
34989;DHT22;21192;40.182;44.516;2024-02-26T11:53:31;8.20;47.10
34989;DHT22;21192;40.182;44.516;2024-02-26T11:59:00;8.20;47.10
34989;DHT22;21192;40.182;44.516;2024-02-26T12:01:45;8.40;47.00
34989;DHT22;21192;40.182;44.516;2024-02-26T12:04:23;8.50;46.70
34989;DHT22;21192;40.182;44.516;2024-02-26T12:07:02;8.60;46.50
34989;DHT22;21192;40.182;44.516;2024-02-26T12:09:36;8.60;46.30
34989;DHT22;21192;40.182;44.516;2024-02-26T12:12:07;8.60;46.20
34989;DHT22;21192;40.182;44.516;2024-02-26T12:14:50;8.70;46.20
34989;DHT22;21192;40.182;44.516;2024-02-26T12:17:23;8.80;46.00
34989;DHT22;21192;40.182;44.516;2024-02-26T12:19:50;8.90;45.70
34989;DHT22;21192;40.182;44.516;2024-02-26T12:22:17;8.90;45.50
34989;DHT22;21192;40.182;44.516;2024-02-26T12:24:43;8.90;45.40
34989;DHT22;21192;40.182;44.516;2024-02-26T12:27:09;8.70;45.50
34989;DHT22;21192;40.182;44.516;2024-02-26T12:29:35;8.80;45.70
34989;DHT22;21192;40.182;44.516;2024-02-26T12:32:02;8.90;45.60
34989;DHT22;21192;40.182;44.516;2024-02-26T12:34:28;8.90;45.50
34989;DHT22;21192;40.182;44.516;2024-02-26T12:36:55;9.00;45.20
34989;DHT22;21192;40.182;44.516;2024-02-26T12:39:21;9.20;45.40
34989;DHT22;21192;40.182;44.516;2024-02-26T12:41:47;9.10;45.10
34989;DHT22;21192;40.182;44.516;2024-02-26T12:44:16;8.80;45.00
34989;DHT22;21192;40.182;44.516;2024-02-26T12:46:42;8.90;45.30
34989;DHT22;21192;40.182;44.516;2024-02-26T12:49:08;9.00;45.40
34989;DHT22;21192;40.182;44.516;2024-02-26T12:51:40;9.10;45.40
34989;DHT22;21192;40.182;44.516;2024-02-26T12:54:07;9.30;45.10
34989;DHT22;21192;40.182;44.516;2024-02-26T12:56:34;9.20;44.70
34989;DHT22;21192;40.182;44.516;2024-02-26T12:59:00;9.10;44.80
34989;DHT22;21192;40.182;44.516;2024-02-26T13:01:28;9.00;44.90
34989;DHT22;21192;40.182;44.516;2024-02-26T13:03:54;8.90;45.20
34989;DHT22;21192;40.182;44.516;2024-02-26T13:06:20;8.90;45.40
34989;DHT22;21192;40.182;44.516;2024-02-26T13:08:47;8.90;45.40
34989;DHT22;21192;40.182;44.516;2024-02-26T13:11:14;8.90;45.30
34989;DHT22;21192;40.182;44.516;2024-02-26T13:13:40;9.00;45.30
34989;DHT22;21192;40.182;44.516;2024-02-26T13:16:07;9.20;45.20
34989;DHT22;21192;40.182;44.516;2024-02-26T13:18:34;9.10;45.10
34989;DHT22;21192;40.182;44.516;2024-02-26T13:21:15;8.90;45.20
34989;DHT22;21192;40.182;44.516;2024-02-26T13:23:42;9.00;45.40
34989;DHT22;21192;40.182;44.516;2024-02-26T13:26:11;9.00;45.20
34989;DHT22;21192;40.182;44.516;2024-02-26T13:28:37;9.10;45.10
34989;DHT22;21192;40.182;44.516;2024-02-26T13:31:04;9.20;45.00
34989;DHT22;21192;40.182;44.516;2024-02-26T13:33:33;9.10;44.90
34989;DHT22;21192;40.182;44.516;2024-02-26T13:36:00;9.10;45.00
34989;DHT22;21192;40.182;44.516;2024-02-26T13:38:27;8.90;45.00
34989;DHT22;21192;40.182;44.516;2024-02-26T13:40:54;8.80;45.40
34989;DHT22;21192;40.182;44.516;2024-02-26T13:43:20;8.70;45.50
34989;DHT22;21192;40.182;44.516;2024-02-26T13:45:46;8.70;45.40
34989;DHT22;21192;40.182;44.516;2024-02-26T13:48:12;8.60;45.30
34989;DHT22;21192;40.182;44.516;2024-02-26T13:50:42;8.70;45.40
34989;DHT22;21192;40.182;44.516;2024-02-26T13:53:11;8.60;45.40
34989;DHT22;21192;40.182;44.516;2024-02-26T13:55:39;8.70;45.30
34989;DHT22;21192;40.182;44.516;2024-02-26T13:58:05;8.80;45.60
34989;DHT22;21192;40.182;44.516;2024-02-26T14:00:32;8.80;45.40
34989;DHT22;21192;40.182;44.516;2024-02-26T14:03:02;8.90;45.00
34989;DHT22;21192;40.182;44.516;2024-02-26T14:05:29;8.80;45.00
34989;DHT22;21192;40.182;44.516;2024-02-26T14:07:55;8.80;45.20
34989;DHT22;21192;40.182;44.516;2024-02-26T14:10:21;8.90;45.10
34989;DHT22;21192;40.182;44.516;2024-02-26T14:12:47;9.00;44.70
34989;DHT22;21192;40.182;44.516;2024-02-26T14:15:13;9.00;44.30
34989;DHT22;21192;40.182;44.516;2024-02-26T14:17:39;8.80;44.20
34989;DHT22;21192;40.182;44.516;2024-02-26T14:20:05;8.80;44.50
34989;DHT22;21192;40.182;44.516;2024-02-26T14:22:33;8.80;44.40
34989;DHT22;21192;40.182;44.516;2024-02-26T14:24:59;8.80;44.50
34989;DHT22;21192;40.182;44.516;2024-02-26T14:27:25;8.80;44.40
34989;DHT22;21192;40.182;44.516;2024-02-26T14:29:51;8.80;44.40
34989;DHT22;21192;40.182;44.516;2024-02-26T14:32:17;8.70;44.50
34989;DHT22;21192;40.182;44.516;2024-02-26T14:34:43;8.80;44.40
34989;DHT22;21192;40.182;44.516;2024-02-26T14:37:09;8.80;44.30
34989;DHT22;21192;40.182;44.516;2024-02-26T14:39:35;8.80;44.20
34989;DHT22;21192;40.182;44.516;2024-02-26T14:42:01;8.80;44.30
34989;DHT22;21192;40.182;44.516;2024-02-26T14:44:27;8.70;44.20
34989;DHT22;21192;40.182;44.516;2024-02-26T14:46:53;8.70;44.20
34989;DHT22;21192;40.182;44.516;2024-02-26T14:49:19;8.60;44.20
34989;DHT22;21192;40.182;44.516;2024-02-26T14:51:45;8.40;44.30
34989;DHT22;21192;40.182;44.516;2024-02-26T14:54:12;8.30;44.60
34989;DHT22;21192;40.182;44.516;2024-02-26T14:56:38;8.20;44.80
34989;DHT22;21192;40.182;44.516;2024-02-26T14:59:04;8.20;44.90
34989;DHT22;21192;40.182;44.516;2024-02-26T15:01:30;8.20;44.90
34989;DHT22;21192;40.182;44.516;2024-02-26T15:03:56;8.20;45.00
34989;DHT22;21192;40.182;44.516;2024-02-26T15:06:23;8.30;44.90
34989;DHT22;21192;40.182;44.516;2024-02-26T15:08:49;8.10;44.80
34989;DHT22;21192;40.182;44.516;2024-02-26T15:11:15;8.10;45.20
34989;DHT22;21192;40.182;44.516;2024-02-26T15:13:41;8.00;45.30
34989;DHT22;21192;40.182;44.516;2024-02-26T15:16:07;8.00;45.30
34989;DHT22;21192;40.182;44.516;2024-02-26T15:18:33;8.00;45.30
34989;DHT22;21192;40.182;44.516;2024-02-26T15:20:58;7.90;45.30
34989;DHT22;21192;40.182;44.516;2024-02-26T15:23:24;8.00;45.30
34989;DHT22;21192;40.182;44.516;2024-02-26T15:25:50;8.00;45.00
34989;DHT22;21192;40.182;44.516;2024-02-26T15:28:16;8.00;44.70
34989;DHT22;21192;40.182;44.516;2024-02-26T15:30:42;7.90;44.70
34989;DHT22;21192;40.182;44.516;2024-02-26T15:33:08;7.80;44.80
34989;DHT22;21192;40.182;44.516;2024-02-26T15:35:34;7.70;44.80
34989;DHT22;21192;40.182;44.516;2024-02-26T15:38:00;7.50;45.00
34989;DHT22;21192;40.182;44.516;2024-02-26T15:40:26;7.50;45.20